createdAt,value
2019-02-19T00:02:22.922Z,-0.10
2019-02-19T00:04:55.212Z,-0.20
2019-02-19T00:07:26.665Z,-0.30
2019-02-19T00:09:58.080Z,-0.30
2019-02-19T00:12:30.789Z,-0.40
2019-02-19T00:15:07.882Z,-0.30
2019-02-19T00:17:36.012Z,-0.30
2019-02-19T00:20:07.382Z,-0.40
2019-02-19T00:22:39.050Z,-0.40
2019-02-19T00:25:10.421Z,-0.40
2019-02-19T00:27:41.902Z,-0.40
2019-02-19T00:30:13.412Z,-0.40
2019-02-19T00:32:44.859Z,-0.40
2019-02-19T00:35:16.230Z,-0.40
2019-02-19T00:37:47.651Z,-0.50
2019-02-19T00:40:18.946Z,-0.50
2019-02-19T00:42:51.661Z,-0.50
2019-02-19T00:45:23.068Z,-0.40
2019-02-19T00:47:54.500Z,-0.40
2019-02-19T00:50:26.750Z,-0.40
2019-02-19T00:52:58.049Z,-0.40
2019-02-19T00:55:29.522Z,-0.40
2019-02-19T00:58:00.822Z,-0.40
2019-02-19T01:00:32.101Z,-0.30
2019-02-19T01:03:04.840Z,-0.30
2019-02-19T01:05:36.178Z,-0.40
2019-02-19T01:08:07.622Z,-0.50
2019-02-19T01:10:38.873Z,-0.50
2019-02-19T01:13:10.269Z,-0.50
2019-02-19T01:15:41.527Z,-0.50
2019-02-19T01:18:13.844Z,-0.60
2019-02-19T01:20:45.226Z,-0.40
2019-02-19T01:23:16.524Z,-0.40
2019-02-19T01:25:47.908Z,-0.40
2019-02-19T01:28:19.301Z,-0.30
2019-02-19T01:30:50.529Z,-0.30
2019-02-19T01:33:21.859Z,-0.30
2019-02-19T01:35:53.131Z,-0.30
2019-02-19T01:38:24.459Z,-0.30
2019-02-19T01:40:55.726Z,-0.20
2019-02-19T01:43:27.129Z,-0.20
2019-02-19T01:45:58.487Z,-0.20
2019-02-19T01:48:29.874Z,-0.20
2019-02-19T01:51:01.132Z,-0.20
2019-02-19T01:53:32.540Z,-0.10
2019-02-19T01:56:04.899Z,-0.10
2019-02-19T01:58:43.555Z,-0.10
2019-02-19T02:01:10.382Z,-0.10
2019-02-19T02:03:41.791Z,-0.10
2019-02-19T02:06:14.890Z,-0.10
2019-02-19T02:08:46.312Z,-0.20
2019-02-19T02:11:17.688Z,-0.20
2019-02-19T02:13:48.958Z,-0.30
2019-02-19T02:16:21.869Z,-0.50
2019-02-19T02:18:54.087Z,-0.50
2019-02-19T02:21:25.360Z,-0.50
2019-02-19T02:23:56.770Z,-0.60
2019-02-19T02:26:28.141Z,-0.50
2019-02-19T02:28:59.558Z,-0.60
2019-02-19T02:31:30.909Z,-0.60
2019-02-19T02:34:02.230Z,-0.70
2019-02-19T02:36:34.475Z,-0.70
2019-02-19T02:39:05.791Z,-0.70
2019-02-19T02:41:37.071Z,-0.70
2019-02-19T02:44:08.502Z,-0.80
2019-02-19T02:46:39.869Z,-0.80
2019-02-19T02:49:11.181Z,-0.80
2019-02-19T02:51:42.630Z,-0.80
2019-02-19T02:54:14.158Z,-0.70
2019-02-19T02:56:45.549Z,-0.70
2019-02-19T02:59:16.960Z,-0.70
2019-02-19T03:01:48.220Z,-0.80
2019-02-19T03:04:19.627Z,-0.70
2019-02-19T03:06:52.550Z,-0.70
2019-02-19T03:09:23.875Z,-0.70
2019-02-19T03:11:55.288Z,-0.70
2019-02-19T03:14:27.558Z,-0.80
2019-02-19T03:16:58.758Z,-0.80
2019-02-19T03:19:31.043Z,-0.90
2019-02-19T03:22:02.421Z,-0.90
2019-02-19T03:24:33.829Z,-0.80
2019-02-19T03:27:07.502Z,-0.80
2019-02-19T03:29:39.502Z,-0.80
2019-02-19T03:32:10.888Z,-0.80
2019-02-19T03:37:43.845Z,-0.80
2019-02-19T03:40:15.163Z,-0.70
2019-02-19T03:42:47.044Z,-0.70
2019-02-19T03:45:18.439Z,-0.80
2019-02-19T03:47:49.719Z,-0.70
2019-02-19T03:50:21.130Z,-0.70
2019-02-19T03:52:52.849Z,-0.80
2019-02-19T03:55:24.114Z,-0.80
2019-02-19T03:57:55.518Z,-0.90
2019-02-19T04:00:26.973Z,-0.90
2019-02-19T04:02:58.232Z,-0.80
2019-02-19T04:05:29.553Z,-0.90
2019-02-19T04:08:00.930Z,-0.90
2019-02-19T04:10:32.351Z,-0.90
2019-02-19T04:13:03.622Z,-0.90
2019-02-19T04:15:34.976Z,-0.90
2019-02-19T04:18:06.421Z,-0.90
2019-02-19T04:20:37.847Z,-1.00
2019-02-19T04:23:09.238Z,-1.10
2019-02-19T04:25:49.514Z,-1.00
2019-02-19T04:28:16.422Z,-1.00
2019-02-19T04:30:47.841Z,-1.20
2019-02-19T04:33:19.119Z,-1.20
2019-02-19T04:35:59.644Z,-1.20
2019-02-19T04:38:36.640Z,-1.20
2019-02-19T04:41:08.080Z,-1.20
2019-02-19T04:43:39.455Z,-1.20
2019-02-19T04:46:10.783Z,-1.20
2019-02-19T04:48:42.062Z,-1.30
2019-02-19T04:51:13.550Z,-1.40
2019-02-19T04:53:44.921Z,-1.40
2019-02-19T04:56:16.202Z,-1.40
2019-02-19T04:58:47.484Z,-1.40
2019-02-19T05:01:18.810Z,-1.40
2019-02-19T05:03:50.143Z,-1.40
2019-02-19T05:06:21.470Z,-1.40
2019-02-19T05:08:52.844Z,-1.40
2019-02-19T05:11:24.191Z,-1.50
2019-02-19T05:13:55.478Z,-1.50
2019-02-19T05:16:26.891Z,-1.50
2019-02-19T05:18:58.158Z,-1.40
2019-02-19T05:21:30.295Z,-1.40
2019-02-19T05:24:01.590Z,-1.30
2019-02-19T05:26:32.983Z,-1.30
2019-02-19T05:31:52.727Z,-1.40
2019-02-19T05:34:25.159Z,-1.50
2019-02-19T05:36:56.550Z,-1.60
2019-02-19T05:39:28.003Z,-1.50
2019-02-19T05:42:02.483Z,-1.50
2019-02-19T05:44:37.372Z,-1.50
2019-02-19T05:47:08.825Z,-1.50
2019-02-19T05:49:41.184Z,-1.50
2019-02-19T05:52:14.267Z,-1.50
2019-02-19T05:54:45.571Z,-1.60
2019-02-19T05:57:16.879Z,-1.50
2019-02-19T05:59:48.256Z,-1.50
2019-02-19T06:02:19.599Z,-1.50
2019-02-19T06:04:50.999Z,-1.50
2019-02-19T06:07:22.362Z,-1.50
2019-02-19T06:09:53.719Z,-1.50
2019-02-19T06:12:25.143Z,-1.60
2019-02-19T06:14:56.663Z,-1.60
2019-02-19T06:17:28.062Z,-1.60
2019-02-19T06:19:59.457Z,-1.50
2019-02-19T06:22:31.802Z,-1.60
2019-02-19T06:25:05.992Z,-1.50
2019-02-19T06:27:37.302Z,-1.40
2019-02-19T06:30:13.086Z,-1.40
2019-02-19T06:32:44.368Z,-1.40
2019-02-19T06:35:16.578Z,-1.40
2019-02-19T06:37:48.102Z,-1.40
2019-02-19T06:40:24.682Z,-1.30
2019-02-19T06:42:55.914Z,-1.20
2019-02-19T06:45:34.218Z,-1.10
2019-02-19T06:48:09.411Z,-0.90
2019-02-19T06:50:40.851Z,-0.80
2019-02-19T06:53:12.224Z,-0.70
2019-02-19T06:55:44.978Z,-0.60
2019-02-19T06:58:17.462Z,-0.50
2019-02-19T07:00:48.878Z,-0.40
2019-02-19T07:03:27.730Z,-0.30
2019-02-19T07:05:59.003Z,-0.30
2019-02-19T07:08:31.907Z,-0.20
2019-02-19T07:11:04.011Z,-0.10
2019-02-19T07:13:36.355Z,0.00
2019-02-19T07:16:08.067Z,0.10
2019-02-19T07:18:39.502Z,0.20
2019-02-19T07:21:10.686Z,0.30
2019-02-19T07:23:42.940Z,0.40
2019-02-19T07:26:14.260Z,0.50
2019-02-19T07:28:45.593Z,0.50
2019-02-19T07:31:16.989Z,0.60
2019-02-19T07:33:48.299Z,0.80
2019-02-19T07:36:19.719Z,0.90
2019-02-19T07:38:52.472Z,1.00
2019-02-19T07:41:24.370Z,1.20
2019-02-19T07:43:55.683Z,1.30
2019-02-19T07:46:27.044Z,1.50
2019-02-19T07:48:58.463Z,1.60
2019-02-19T07:51:29.831Z,1.70
2019-02-19T07:54:01.143Z,1.80
2019-02-19T08:14:24.025Z,17.70
2019-02-19T08:19:22.219Z,18.80
2019-02-19T08:21:55.377Z,12.70
2019-02-19T08:24:28.366Z,10.40
2019-02-19T08:27:01.676Z,9.00
2019-02-19T08:29:36.265Z,8.10
2019-02-19T08:32:09.285Z,7.30
2019-02-19T08:34:42.150Z,6.80
2019-02-19T08:37:15.136Z,6.50
2019-02-19T08:39:47.915Z,6.20
2019-02-19T08:42:20.919Z,6.00
2019-02-19T08:44:53.778Z,6.00
2019-02-19T08:47:26.732Z,6.00
2019-02-19T08:49:59.554Z,5.90
2019-02-19T08:52:32.466Z,5.90
2019-02-19T08:55:06.119Z,5.90
2019-02-19T08:57:39.026Z,5.90
2019-02-19T09:00:12.974Z,6.00
2019-02-19T09:02:45.956Z,6.00
2019-02-19T09:05:18.810Z,6.00
2019-02-19T09:07:51.701Z,6.50
2019-02-19T09:10:24.592Z,6.60
2019-02-19T09:12:57.496Z,6.80
2019-02-19T09:15:30.354Z,7.00
2019-02-19T09:18:03.275Z,7.10
2019-02-19T09:20:36.880Z,7.20
2019-02-19T09:23:12.702Z,7.30
2019-02-19T09:25:48.525Z,7.40
2019-02-19T09:28:21.503Z,7.40
2019-02-19T09:30:55.156Z,7.50
2019-02-19T09:33:31.093Z,7.40
2019-02-19T09:36:03.967Z,7.60
2019-02-19T09:38:36.859Z,7.80
2019-02-19T09:41:09.704Z,7.90
2019-02-19T09:43:42.591Z,7.90
2019-02-19T09:46:18.693Z,7.90
2019-02-19T09:48:53.428Z,7.90
2019-02-19T09:51:26.412Z,8.10
2019-02-19T09:53:59.292Z,8.30
2019-02-19T09:56:32.116Z,8.40
2019-02-19T09:59:13.287Z,8.40
2019-02-19T10:01:46.184Z,8.40
2019-02-19T10:04:19.174Z,8.70
2019-02-19T10:06:52.102Z,8.80
2019-02-19T10:09:25.097Z,8.90
2019-02-19T10:11:57.989Z,8.90
2019-02-19T10:14:30.905Z,8.90
2019-02-19T10:17:03.808Z,8.90
2019-02-19T10:19:36.688Z,9.00
2019-02-19T10:22:09.645Z,9.10
2019-02-19T10:24:42.549Z,9.10
2019-02-19T10:27:15.486Z,9.20
2019-02-19T10:29:48.445Z,9.30
2019-02-19T10:32:21.389Z,9.30
2019-02-19T10:34:54.286Z,9.40
2019-02-19T10:37:27.187Z,9.50
2019-02-19T10:40:00.098Z,9.60
2019-02-19T10:42:32.930Z,9.60
2019-02-19T10:45:14.167Z,9.70
2019-02-19T10:47:47.170Z,9.80
2019-02-19T10:50:20.075Z,9.80
2019-02-19T10:52:52.920Z,9.90
2019-02-19T10:55:25.813Z,9.90
2019-02-19T10:57:58.685Z,9.90
2019-02-19T11:00:31.704Z,10.00
2019-02-19T11:03:06.158Z,10.00
2019-02-19T11:05:39.349Z,10.10
2019-02-19T11:08:12.229Z,10.10
2019-02-19T11:10:45.223Z,10.20
2019-02-19T11:13:19.481Z,10.30
2019-02-19T11:15:52.478Z,10.40
2019-02-19T11:18:28.476Z,10.60
2019-02-19T11:21:00.065Z,10.80
2019-02-19T11:23:33.765Z,10.80
2019-02-19T11:26:06.825Z,10.90
2019-02-19T11:28:41.246Z,10.90
2019-02-19T11:31:14.227Z,11.00
2019-02-19T11:33:47.175Z,11.10
2019-02-19T11:36:20.278Z,11.10
2019-02-19T11:38:53.163Z,11.20
2019-02-19T11:41:26.084Z,11.30
2019-02-19T11:43:59.071Z,11.40
2019-02-19T11:46:32.106Z,11.40
2019-02-19T11:49:06.463Z,11.50
2019-02-19T11:51:39.406Z,11.60
2019-02-19T11:54:12.427Z,11.60
2019-02-19T11:56:45.440Z,11.80
2019-02-19T11:59:18.305Z,11.90
2019-02-19T12:01:51.306Z,11.90
2019-02-19T12:04:24.327Z,12.00
2019-02-19T12:06:57.219Z,12.10
2019-02-19T12:09:30.244Z,12.10
2019-02-19T12:12:07.333Z,12.10
2019-02-19T12:14:40.288Z,12.00
2019-02-19T12:17:13.293Z,12.20
2019-02-19T12:19:46.284Z,12.20
2019-02-19T12:22:19.854Z,12.30
2019-02-19T12:24:52.735Z,12.30
2019-02-19T12:27:25.637Z,12.30
2019-02-19T12:29:58.646Z,12.30
2019-02-19T12:32:36.520Z,12.30
2019-02-19T12:35:11.755Z,12.40
2019-02-19T12:37:44.737Z,12.30
2019-02-19T12:40:19.273Z,12.30
2019-02-19T12:42:53.836Z,12.30
2019-02-19T12:45:28.161Z,12.30
2019-02-19T12:48:01.203Z,12.30
2019-02-19T12:50:35.496Z,12.40
2019-02-19T12:53:10.019Z,12.30
2019-02-19T12:55:43.713Z,12.40
2019-02-19T12:58:16.951Z,12.40
2019-02-19T13:00:49.830Z,12.50
2019-02-19T13:03:24.447Z,12.40
2019-02-19T13:05:57.402Z,12.40
2019-02-19T13:08:31.684Z,12.50
2019-02-19T13:11:04.558Z,12.50
2019-02-19T13:13:37.522Z,12.40
2019-02-19T13:16:11.804Z,12.40
2019-02-19T13:18:44.783Z,12.40
2019-02-19T13:23:57.035Z,12.50
2019-02-19T13:26:33.093Z,12.50
2019-02-19T13:29:08.644Z,12.50
2019-02-19T13:31:41.483Z,12.50
2019-02-19T13:34:18.455Z,12.60
2019-02-19T13:36:54.347Z,12.40
2019-02-19T13:39:28.756Z,12.50
2019-02-19T13:42:01.744Z,12.40
2019-02-19T13:44:34.651Z,12.40
2019-02-19T13:47:08.000Z,12.40
2019-02-19T13:49:40.947Z,12.40
2019-02-19T13:52:22.590Z,12.40
2019-02-19T13:54:52.734Z,12.40
2019-02-19T13:57:27.137Z,12.40
2019-02-19T14:00:00.142Z,12.30
2019-02-19T14:02:33.012Z,12.30
2019-02-19T14:05:09.739Z,12.20
2019-02-19T14:07:42.819Z,12.20
2019-02-19T14:10:15.819Z,12.30
2019-02-19T14:12:48.853Z,12.30
2019-02-19T14:15:38.933Z,12.20
2019-02-19T14:18:18.036Z,12.10
2019-02-19T14:21:04.755Z,12.10
2019-02-19T14:23:49.769Z,12.10
2019-02-19T14:26:37.702Z,12.10
2019-02-19T14:29:29.378Z,12.10
2019-02-19T14:32:18.227Z,12.00
2019-02-19T14:35:06.128Z,12.00
2019-02-19T14:37:56.664Z,12.10
2019-02-19T14:40:47.262Z,11.90
2019-02-19T14:43:30.626Z,12.00
2019-02-19T14:46:22.525Z,11.90
2019-02-19T14:48:58.376Z,11.80
2019-02-19T14:51:44.674Z,11.80
2019-02-19T14:54:28.257Z,11.80
2019-02-19T14:57:17.857Z,11.80
2019-02-19T15:00:08.335Z,11.70
2019-02-19T15:02:45.690Z,11.50
2019-02-19T15:05:29.131Z,11.50
2019-02-19T15:08:15.938Z,11.40
2019-02-19T15:10:50.539Z,11.20
2019-02-19T15:13:32.211Z,11.10
2019-02-19T15:16:06.801Z,11.10
2019-02-19T15:18:45.865Z,11.00
2019-02-19T15:21:26.748Z,10.90
2019-02-19T15:24:02.893Z,10.90
2019-02-19T15:26:47.063Z,10.90
2019-02-19T15:29:27.488Z,10.70
2019-02-19T15:32:02.928Z,10.70
2019-02-19T15:34:35.447Z,10.60
2019-02-19T15:37:15.431Z,10.50
2019-02-19T15:39:52.907Z,10.40
2019-02-19T15:42:39.905Z,10.40
2019-02-19T15:45:14.453Z,10.10
2019-02-19T15:47:59.604Z,10.20
2019-02-19T15:50:50.331Z,10.00
2019-02-19T15:53:36.423Z,9.90
2019-02-19T15:56:17.657Z,9.70
2019-02-19T15:59:08.076Z,9.50
2019-02-19T16:01:51.575Z,9.40
2019-02-19T16:04:34.777Z,9.30
2019-02-19T16:07:15.277Z,9.20
2019-02-19T16:09:50.551Z,8.90
2019-02-19T16:12:25.259Z,9.10
2019-02-19T16:14:59.746Z,8.90
2019-02-19T16:17:36.746Z,9.00
2019-02-19T16:20:10.927Z,8.90
2019-02-19T16:22:49.377Z,8.70
2019-02-19T16:25:41.471Z,8.60
2019-02-19T16:28:26.284Z,8.20
2019-02-19T16:30:59.975Z,8.30
2019-02-19T16:33:40.105Z,8.50
2019-02-19T16:36:17.189Z,8.30
2019-02-19T16:38:54.290Z,8.30
2019-02-19T16:41:31.370Z,8.30
2019-02-19T16:44:17.493Z,8.00
2019-02-19T16:46:51.869Z,8.00
2019-02-19T16:49:34.828Z,8.00
2019-02-19T16:52:09.218Z,8.00
2019-02-19T16:54:49.640Z,8.00
2019-02-19T16:57:26.429Z,8.00
2019-02-19T17:00:02.200Z,8.10
2019-02-19T17:02:46.896Z,8.10
2019-02-19T17:05:19.454Z,8.10
2019-02-19T17:07:53.957Z,8.20
2019-02-19T17:10:29.755Z,8.10
2019-02-19T17:13:07.040Z,8.10
2019-02-19T17:15:41.467Z,8.20
2019-02-19T17:18:18.986Z,8.10
2019-02-19T17:21:09.659Z,8.10
2019-02-19T17:23:47.149Z,8.10
2019-02-19T17:26:21.574Z,7.90
2019-02-19T17:28:58.873Z,7.90
2019-02-19T17:31:46.690Z,7.90
2019-02-19T17:34:24.136Z,8.00
2019-02-19T17:36:58.555Z,8.10
2019-02-19T17:39:42.547Z,8.10
2019-02-19T17:42:22.694Z,8.10
2019-02-19T17:44:59.802Z,8.10
2019-02-19T17:47:37.205Z,8.00
2019-02-19T17:50:18.765Z,8.00
2019-02-19T17:53:09.312Z,8.10
2019-02-19T17:55:55.840Z,8.00
2019-02-19T17:58:28.384Z,8.10
2019-02-19T18:01:11.834Z,8.20
2019-02-19T18:03:46.304Z,8.20
2019-02-19T18:06:18.887Z,8.20
2019-02-19T18:08:51.446Z,8.20
2019-02-19T18:11:26.729Z,8.00
2019-02-19T18:14:15.940Z,8.00
2019-02-19T18:16:59.585Z,8.00
2019-02-19T18:19:32.619Z,7.80
2019-02-19T18:22:05.619Z,7.80
2019-02-19T18:24:38.357Z,7.80
2019-02-19T18:27:11.260Z,7.60
2019-02-19T18:29:44.237Z,7.90
2019-02-19T18:32:17.246Z,7.70
2019-02-19T18:34:50.226Z,7.80
2019-02-19T18:37:24.748Z,7.70
2019-02-19T18:39:57.607Z,7.60
2019-02-19T18:42:30.521Z,7.50
2019-02-19T18:45:03.440Z,7.70
2019-02-19T18:47:37.305Z,7.60
2019-02-19T18:50:10.882Z,7.60
2019-02-19T18:52:43.807Z,7.80
2019-02-19T18:55:16.680Z,7.60
2019-02-19T18:57:49.687Z,7.50
2019-02-19T19:00:23.428Z,7.40
2019-02-19T19:02:56.241Z,7.50
2019-02-19T19:05:29.000Z,7.50
2019-02-19T19:08:01.965Z,7.50
2019-02-19T19:10:34.653Z,7.40
2019-02-19T19:13:07.527Z,7.30
2019-02-19T19:15:40.384Z,7.30
2019-02-19T19:18:13.332Z,7.20
2019-02-19T19:20:47.549Z,7.20
2019-02-19T19:23:20.436Z,7.10
2019-02-19T19:25:53.191Z,7.10
2019-02-19T19:28:26.119Z,7.00
2019-02-19T19:30:58.945Z,6.90
2019-02-19T19:33:31.907Z,6.80
2019-02-19T19:36:04.754Z,6.80
2019-02-19T19:38:37.745Z,6.70
2019-02-19T19:41:10.572Z,6.70
2019-02-19T19:43:43.379Z,6.70
2019-02-19T19:46:16.297Z,6.70
2019-02-19T19:48:49.068Z,6.50
2019-02-19T19:51:21.901Z,6.80
2019-02-19T19:53:54.688Z,6.80
2019-02-19T19:56:27.406Z,6.90
2019-02-19T19:59:00.197Z,6.90
2019-02-19T20:01:33.058Z,6.90
2019-02-19T20:04:06.051Z,7.00
2019-02-19T20:06:38.786Z,7.10
2019-02-19T20:09:11.523Z,7.20
2019-02-19T20:11:44.784Z,7.20
2019-02-19T20:14:17.511Z,7.20
2019-02-19T20:16:50.488Z,7.20
2019-02-19T20:19:23.498Z,7.20
2019-02-19T20:21:56.327Z,7.30
2019-02-19T20:24:29.249Z,7.30
2019-02-19T20:27:02.327Z,7.40
2019-02-19T20:29:35.367Z,7.40
2019-02-19T20:32:08.210Z,7.40
2019-02-19T20:34:41.346Z,7.50
2019-02-19T20:37:14.106Z,7.60
2019-02-19T20:39:46.990Z,7.60
2019-02-19T20:42:23.538Z,7.60
2019-02-19T20:44:56.257Z,7.60
2019-02-19T20:47:29.025Z,7.60
2019-02-19T20:50:01.938Z,7.50
2019-02-19T20:52:35.532Z,7.50
2019-02-19T20:55:11.291Z,7.40
2019-02-19T20:57:44.029Z,7.30
2019-02-19T21:00:18.175Z,7.20
2019-02-19T21:02:51.956Z,7.10
2019-02-19T21:05:24.769Z,7.00
2019-02-19T21:07:57.725Z,7.00
2019-02-19T21:10:30.642Z,6.90
2019-02-19T21:13:03.447Z,6.80
2019-02-19T21:15:36.259Z,6.70
2019-02-19T21:18:09.072Z,6.60
2019-02-19T21:20:43.367Z,6.50
2019-02-19T21:23:16.152Z,6.40
2019-02-19T21:25:49.010Z,6.20
2019-02-19T21:28:21.985Z,6.00
2019-02-19T21:30:54.778Z,6.00
2019-02-19T21:33:27.640Z,6.00
2019-02-19T21:36:00.469Z,5.90
2019-02-19T21:38:33.307Z,5.90
2019-02-19T21:41:07.807Z,5.70
2019-02-19T21:43:40.580Z,5.80
2019-02-19T21:46:13.479Z,5.80
2019-02-19T21:48:48.158Z,5.70
2019-02-19T21:51:20.755Z,5.70
2019-02-19T21:53:53.572Z,5.60
2019-02-19T21:56:26.353Z,5.70
2019-02-19T21:58:59.129Z,5.60
2019-02-19T22:01:32.022Z,5.60
2019-02-19T22:04:06.387Z,5.50
2019-02-19T22:06:40.831Z,5.50
2019-02-19T22:09:13.741Z,5.40
2019-02-19T22:11:47.744Z,5.40
2019-02-19T22:14:20.617Z,5.30
2019-02-19T22:16:54.278Z,5.30
2019-02-19T22:19:27.055Z,5.30
2019-02-19T22:22:03.713Z,5.30
2019-02-19T22:24:51.486Z,5.40
2019-02-19T22:27:24.391Z,5.40
2019-02-19T22:29:57.294Z,5.30
2019-02-19T22:32:30.118Z,5.40
2019-02-19T22:35:04.451Z,5.30
2019-02-19T22:37:37.365Z,5.30
2019-02-19T22:40:10.226Z,5.30
2019-02-19T22:42:43.155Z,5.20
2019-02-19T22:45:16.026Z,5.20
2019-02-19T22:47:53.510Z,5.20
2019-02-19T22:50:23.413Z,5.30
2019-02-19T22:52:56.317Z,5.30
2019-02-19T22:55:30.721Z,5.30
2019-02-19T22:58:03.796Z,5.30
2019-02-19T23:00:39.907Z,5.20
2019-02-19T23:03:26.421Z,5.20
2019-02-19T23:05:59.380Z,5.30
2019-02-19T23:08:32.289Z,5.20
2019-02-19T23:11:06.545Z,5.30
2019-02-19T23:13:39.474Z,5.30
2019-02-19T23:16:12.431Z,5.30
2019-02-19T23:18:45.334Z,5.20
2019-02-19T23:21:18.325Z,5.20
2019-02-19T23:23:51.255Z,5.30
2019-02-19T23:26:24.087Z,5.30
2019-02-19T23:28:56.984Z,5.30
2019-02-19T23:31:29.854Z,5.20
2019-02-19T23:34:02.679Z,5.10
2019-02-19T23:36:37.147Z,5.10
2019-02-19T23:39:11.699Z,5.00
2019-02-19T23:41:47.100Z,5.00
2019-02-19T23:44:20.411Z,5.00
2019-02-19T23:46:54.287Z,4.90
2019-02-19T23:49:27.178Z,4.90
2019-02-19T23:52:00.033Z,4.90
2019-02-19T23:54:32.987Z,4.90
2019-02-19T23:57:05.828Z,4.90
2019-02-19T23:59:38.703Z,5.00
